Time,TemperatureF,DewpointF,PressureIn,WindDirection,WindDirectionDegrees,WindSpeedMPH,WindSpeedGustMPH,Humidity,HourlyPrecipIn,Conditions,Clouds,dailyrainin,SoftwareType,DateUTC
2013-01-10 00:00:00,51.1,47.3,30.24,NE,50,0.0,0.0,87,0.00,OVC,,0.00,WeatherDisplay:10.37,2013-01-10 05:00:00,
2013-01-10 00:01:00,51.1,47.3,30.24,NE,50,0.0,0.0,87,0.00,FEW,OVC,0.00,WeatherDisplay:10.37,2013-01-10 05:01:00,
2013-01-10 00:03:00,51.1,47.3,30.24,NE,50,0.0,0.0,87,0.00,FEW,OVC,0.00,WeatherDisplay:10.37,2013-01-10 05:03:00,
2013-01-10 00:08:00,50.9,47.2,30.24,NE,50,0.0,0.0,87,0.00,FEW,OVC,0.00,WeatherDisplay:10.37,2013-01-10 05:08:00,
2013-01-10 00:13:00,50.9,47.2,30.24,NE,50,0.0,0.0,87,0.00,FEW,OVC,0.00,WeatherDisplay:10.37,2013-01-10 05:13:00,
2013-01-10 00:18:00,50.9,47.5,30.24,ENE,60,3.5,3.5,88,0.00,BKN,OVC,0.00,WeatherDisplay:10.37,2013-01-10 05:18:00,
2013-01-10 00:23:00,51.1,47.6,30.24,ENE,60,3.5,3.5,88,0.00,BKN,OVC,0.00,WeatherDisplay:10.37,2013-01-10 05:23:00,
2013-01-10 00:28:00,51.1,47.6,30.24,ENE,60,3.5,3.5,88,0.00,BKN,OVC,0.00,WeatherDisplay:10.37,2013-01-10 05:28:00,
2013-01-10 00:33:00,51.1,47.6,30.24,ENE,60,3.5,3.5,88,0.00,BKN,OVC,0.00,WeatherDisplay:10.37,2013-01-10 05:33:00,
2013-01-10 00:38:00,51.1,47.6,30.24,ENE,60,3.5,3.5,88,0.00,BKN,OVC,0.00,WeatherDisplay:10.37,2013-01-10 05:38:00,
2013-01-10 00:43:00,51.1,47.6,30.24,ENE,60,3.5,3.5,88,0.00,BKN,OVC,0.00,WeatherDisplay:10.37,2013-01-10 05:43:00,
2013-01-10 00:48:00,51.1,47.6,30.24,ENE,60,3.5,3.5,88,0.00,BKN,OVC,0.00,WeatherDisplay:10.37,2013-01-10 05:48:00,
2013-01-10 00:53:00,51.1,47.6,30.24,ENE,60,3.5,3.5,88,0.00,BKN,OVC,0.00,WeatherDisplay:10.37,2013-01-10 05:53:00,
2013-01-10 00:58:00,51.1,47.6,30.24,ENE,60,3.5,3.5,88,0.00,BKN,OVC,0.00,WeatherDisplay:10.37,2013-01-10 05:58:00,
2013-01-10 01:03:00,51.3,47.8,30.24,ENE,60,3.5,3.5,88,0.00,BKN,OVC,0.00,WeatherDisplay:10.37,2013-01-10 06:03:00,
2013-01-10 01:08:00,51.3,47.8,30.24,ENE,60,3.5,3.5,88,0.00,BKN,OVC,0.00,WeatherDisplay:10.37,2013-01-10 06:08:00,
2013-01-10 01:13:00,51.4,48.0,30.23,ENE,60,3.5,3.5,88,0.00,BKN,OVC,0.00,WeatherDisplay:10.37,2013-01-10 06:13:00,
2013-01-10 01:18:00,51.4,48.0,30.23,NE,50,3.5,3.5,88,0.00,OVC,,0.00,WeatherDisplay:10.37,2013-01-10 06:18:00,
2013-01-10 01:23:00,51.4,48.0,30.23,NE,50,3.5,3.5,88,0.00,OVC,,0.00,WeatherDisplay:10.37,2013-01-10 06:23:00,
2013-01-10 01:28:00,51.1,47.6,30.23,NE,50,3.5,3.5,88,0.00,OVC,,0.00,WeatherDisplay:10.37,2013-01-10 06:28:00,
2013-01-10 01:33:00,51.1,47.6,30.23,NE,50,3.5,3.5,88,0.00,OVC,,0.00,WeatherDisplay:10.37,2013-01-10 06:33:00,
2013-01-10 01:38:00,51.1,47.6,30.23,NE,50,3.5,3.5,88,0.00,OVC,,0.00,WeatherDisplay:10.37,2013-01-10 06:38:00,
2013-01-10 01:43:00,51.1,47.6,30.23,NE,50,3.5,3.5,88,0.00,OVC,,0.00,WeatherDisplay:10.37,2013-01-10 06:43:00,
2013-01-10 01:48:00,51.1,47.6,30.24,NE,50,3.5,3.5,88,0.00,OVC,,0.00,WeatherDisplay:10.37,2013-01-10 06:48:00,
2013-01-10 01:53:00,51.1,47.6,30.23,NE,50,3.5,3.5,88,0.00,OVC,,0.00,WeatherDisplay:10.37,2013-01-10 06:53:00,
2013-01-10 01:58:00,51.1,47.6,30.23,NE,50,3.5,3.5,88,0.00,OVC,,0.00,WeatherDisplay:10.37,2013-01-10 06:58:00,
2013-01-10 02:03:00,51.1,47.6,30.23,NE,50,3.5,3.5,88,0.00,OVC,,0.00,WeatherDisplay:10.37,2013-01-10 07:03:00,
2013-01-10 02:08:00,51.1,47.6,30.23,NE,50,3.5,3.5,88,0.00,OVC,,0.00,WeatherDisplay:10.37,2013-01-10 07:08:00,
2013-01-10 02:13:00,51.1,47.6,30.23,NE,50,3.5,3.5,88,0.00,OVC,,0.00,WeatherDisplay:10.37,2013-01-10 07:13:00,
2013-01-10 02:18:00,51.1,47.6,30.23,ENE,70,4.6,4.6,88,0.00,OVC,,0.00,WeatherDisplay:10.37,2013-01-10 07:18:00,
2013-01-10 02:23:00,51.1,47.6,30.23,ENE,70,4.6,4.6,88,0.00,OVC,,0.00,WeatherDisplay:10.37,2013-01-10 07:23:00,
2013-01-10 02:28:00,51.1,47.6,30.23,ENE,70,4.6,4.6,88,0.00,OVC,,0.00,WeatherDisplay:10.37,2013-01-10 07:28:00,
2013-01-10 02:33:00,51.1,47.6,30.23,ENE,70,4.6,4.6,88,0.00,OVC,,0.00,WeatherDisplay:10.37,2013-01-10 07:33:00,
2013-01-10 02:38:00,51.1,47.6,30.23,ENE,70,4.6,4.6,88,0.00,OVC,,0.00,WeatherDisplay:10.37,2013-01-10 07:38:00,
2013-01-10 02:43:00,51.1,47.6,30.23,ENE,70,4.6,4.6,88,0.00,OVC,,0.00,WeatherDisplay:10.37,2013-01-10 07:43:00,
2013-01-10 02:48:00,51.1,48.0,30.24,East,80,3.5,3.5,89,0.00,BKN,OVC,0.00,WeatherDisplay:10.37,2013-01-10 07:48:00,
2013-01-10 02:53:00,51.1,48.0,30.24,East,80,3.5,3.5,89,0.00,BKN,OVC,0.00,WeatherDisplay:10.37,2013-01-10 07:53:00,
2013-01-10 02:58:00,51.1,48.0,30.24,East,80,3.5,3.5,89,0.00,BKN,OVC,0.00,WeatherDisplay:10.37,2013-01-10 07:58:00,
2013-01-10 03:03:00,51.1,48.0,30.25,East,80,3.5,3.5,89,0.00,BKN,OVC,0.00,WeatherDisplay:10.37,2013-01-10 08:03:00,
2013-01-10 03:08:00,51.1,48.0,30.25,East,80,3.5,3.5,89,0.00,BKN,OVC,0.00,WeatherDisplay:10.37,2013-01-10 08:08:00,
2013-01-10 03:13:00,51.3,48.1,30.25,East,80,3.5,3.5,89,0.00,BKN,OVC,0.00,WeatherDisplay:10.37,2013-01-10 08:13:00,
2013-01-10 03:18:00,51.3,48.1,30.25,NE,50,3.5,3.5,89,0.00,OVC,,0.00,WeatherDisplay:10.37,2013-01-10 08:18:00,
2013-01-10 03:23:00,51.3,48.1,30.25,NE,50,3.5,3.5,89,0.00,OVC,,0.00,WeatherDisplay:10.37,2013-01-10 08:23:00,
2013-01-10 03:28:00,51.4,48.3,30.24,NE,50,3.5,3.5,89,0.00,OVC,,0.00,WeatherDisplay:10.37,2013-01-10 08:28:00,
2013-01-10 03:33:00,51.4,48.3,30.24,NE,50,3.5,3.5,89,0.00,OVC,,0.00,WeatherDisplay:10.37,2013-01-10 08:33:00,
2013-01-10 03:38:00,51.4,48.3,30.24,NE,50,3.5,3.5,89,0.00,OVC,,0.00,WeatherDisplay:10.37,2013-01-10 08:38:00,
2013-01-10 03:43:00,51.4,48.3,30.24,NE,50,3.5,3.5,89,0.00,OVC,,0.00,WeatherDisplay:10.37,2013-01-10 08:43:00,
2013-01-10 03:48:00,51.6,48.5,30.24,NE,50,3.5,3.5,89,0.00,OVC,,0.00,WeatherDisplay:10.37,2013-01-10 08:48:00,
2013-01-10 03:53:00,51.6,48.5,30.24,NE,50,3.5,3.5,89,0.00,OVC,,0.00,WeatherDisplay:10.37,2013-01-10 08:53:00,
2013-01-10 03:58:00,51.6,48.5,30.24,NE,50,3.5,3.5,89,0.00,OVC,,0.00,WeatherDisplay:10.37,2013-01-10 08:58:00,
2013-01-10 04:03:00,51.6,48.5,30.24,NE,50,3.5,3.5,89,0.00,OVC,,0.00,WeatherDisplay:10.37,2013-01-10 09:03:00,
2013-01-10 04:08:00,51.6,48.5,30.23,NE,50,3.5,3.5,89,0.00,OVC,,0.00,WeatherDisplay:10.37,2013-01-10 09:08:00,
2013-01-10 04:13:00,51.6,48.5,30.23,NE,50,3.5,3.5,89,0.00,OVC,,0.00,WeatherDisplay:10.37,2013-01-10 09:13:00,
2013-01-10 04:18:00,51.6,48.5,30.23,NE,50,3.5,3.5,89,0.00,OVC,,0.00,WeatherDisplay:10.37,2013-01-10 09:18:00,
2013-01-10 04:23:00,51.6,48.5,30.23,NE,50,3.5,3.5,89,0.00,OVC,,0.00,WeatherDisplay:10.37,2013-01-10 09:23:00,
2013-01-10 04:28:00,51.6,48.5,30.23,NE,50,3.5,3.5,89,0.00,OVC,,0.00,WeatherDisplay:10.37,2013-01-10 09:28:00,
2013-01-10 04:33:00,51.6,48.5,30.23,NE,50,3.5,3.5,89,0.00,OVC,,0.00,WeatherDisplay:10.37,2013-01-10 09:33:00,
2013-01-10 04:38:00,51.6,48.5,30.23,NE,50,3.5,3.5,89,0.00,OVC,,0.00,WeatherDisplay:10.37,2013-01-10 09:38:00,
2013-01-10 04:43:00,51.6,48.5,30.23,NE,50,3.5,3.5,89,0.00,OVC,,0.00,WeatherDisplay:10.37,2013-01-10 09:43:00,
2013-01-10 04:48:00,51.6,48.5,30.23,NE,50,3.5,3.5,89,0.00,OVC,,0.00,WeatherDisplay:10.37,2013-01-10 09:48:00,
2013-01-10 04:53:00,51.6,48.5,30.23,NE,50,3.5,3.5,89,0.00,OVC,,0.00,WeatherDisplay:10.37,2013-01-10 09:53:00,
2013-01-10 04:58:00,51.6,48.5,30.23,NE,50,3.5,3.5,89,0.00,OVC,,0.00,WeatherDisplay:10.37,2013-01-10 09:58:00,
2013-01-10 05:03:00,51.8,49.0,30.23,NE,50,3.5,3.5,90,0.00,OVC,,0.00,WeatherDisplay:10.37,2013-01-10 10:03:00,
2013-01-10 05:08:00,51.8,48.7,30.22,NE,50,3.5,3.5,89,0.00,OVC,,0.00,WeatherDisplay:10.37,2013-01-10 10:08:00,
2013-01-10 05:13:00,51.8,48.7,30.22,NE,50,3.5,3.5,89,0.00,OVC,,0.00,WeatherDisplay:10.37,2013-01-10 10:13:00,
2013-01-10 05:18:00,52.0,48.8,30.22,East,80,4.6,4.6,89,0.00,OVC,,0.00,WeatherDisplay:10.37,2013-01-10 10:18:00,
2013-01-10 05:23:00,52.0,48.8,30.22,East,80,4.6,4.6,89,0.00,OVC,,0.00,WeatherDisplay:10.37,2013-01-10 10:23:00,
2013-01-10 05:28:00,52.0,48.8,30.22,East,80,4.6,4.6,89,0.00,OVC,,0.00,WeatherDisplay:10.37,2013-01-10 10:28:00,
2013-01-10 05:33:00,52.0,49.1,30.22,East,80,4.6,4.6,90,0.00,OVC,,0.00,WeatherDisplay:10.37,2013-01-10 10:33:00,
2013-01-10 05:38:00,52.0,49.1,30.22,East,80,4.6,4.6,90,0.00,OVC,,0.00,WeatherDisplay:10.37,2013-01-10 10:38:00,
2013-01-10 05:43:00,52.0,49.1,30.22,East,80,4.6,4.6,90,0.00,OVC,,0.00,WeatherDisplay:10.37,2013-01-10 10:43:00,
2013-01-10 05:48:00,52.2,49.3,30.22,East,80,4.6,4.6,90,0.00,OVC,,0.00,WeatherDisplay:10.37,2013-01-10 10:48:00,
2013-01-10 05:53:00,52.2,49.3,30.22,East,80,4.6,4.6,90,0.00,OVC,,0.00,WeatherDisplay:10.37,2013-01-10 10:53:00,
2013-01-10 05:58:00,52.2,49.3,30.22,East,80,4.6,4.6,90,0.00,OVC,,0.00,WeatherDisplay:10.37,2013-01-10 10:58:00,
2013-01-10 06:03:00,52.2,49.3,30.22,East,80,4.6,4.6,90,0.00,OVC,,0.00,WeatherDisplay:10.37,2013-01-10 11:03:00,
2013-01-10 06:08:00,52.3,49.5,30.22,East,80,4.6,4.6,90,0.00,OVC,,0.00,WeatherDisplay:10.37,2013-01-10 11:08:00,
2013-01-10 06:13:00,52.3,49.5,30.22,East,80,4.6,4.6,90,0.00,OVC,,0.00,WeatherDisplay:10.37,2013-01-10 11:13:00,
2013-01-10 06:18:00,52.3,49.5,30.22,East,80,4.6,4.6,90,0.00,OVC,,0.00,WeatherDisplay:10.37,2013-01-10 11:18:00,
2013-01-10 06:23:00,52.3,49.5,30.22,East,80,4.6,4.6,90,0.00,OVC,,0.00,WeatherDisplay:10.37,2013-01-10 11:23:00,
2013-01-10 06:28:00,52.3,49.5,30.22,East,80,4.6,4.6,90,0.00,OVC,,0.00,WeatherDisplay:10.37,2013-01-10 11:28:00,
2013-01-10 06:33:00,52.3,49.5,30.22,East,80,4.6,4.6,90,0.00,OVC,,0.00,WeatherDisplay:10.37,2013-01-10 11:33:00,
2013-01-10 06:38:00,52.3,49.5,30.22,East,80,4.6,4.6,90,0.00,OVC,,0.00,WeatherDisplay:10.37,2013-01-10 11:38:00,
2013-01-10 06:43:00,52.3,49.5,30.22,East,80,4.6,4.6,90,0.00,OVC,,0.00,WeatherDisplay:10.37,2013-01-10 11:43:00,
2013-01-10 06:48:00,52.3,49.5,30.22,East,80,4.6,4.6,90,0.00,OVC,,0.00,WeatherDisplay:10.37,2013-01-10 11:48:00,
2013-01-10 06:53:00,52.3,49.5,30.22,East,80,4.6,4.6,90,0.00,OVC,,0.00,WeatherDisplay:10.37,2013-01-10 11:53:00,
2013-01-10 06:58:00,52.5,49.7,30.23,East,80,4.6,4.6,90,0.00,OVC,,0.00,WeatherDisplay:10.37,2013-01-10 11:58:00,
2013-01-10 07:03:00,52.5,49.7,30.22,East,80,4.6,4.6,90,0.00,OVC,,0.00,WeatherDisplay:10.37,2013-01-10 12:03:00,
2013-01-10 07:08:00,52.5,49.7,30.22,East,80,4.6,4.6,90,0.00,OVC,,0.00,WeatherDisplay:10.37,2013-01-10 12:08:00,
2013-01-10 07:13:00,52.5,49.7,30.22,East,80,4.6,4.6,90,0.00,OVC,,0.00,WeatherDisplay:10.37,2013-01-10 12:13:00,
2013-01-10 07:18:00,52.7,49.8,30.22,ENE,70,5.8,5.8,90,0.00,OVC,,0.00,WeatherDisplay:10.37,2013-01-10 12:18:00,
2013-01-10 07:23:00,52.7,49.8,30.23,ENE,70,5.8,5.8,90,0.00,OVC,,0.00,WeatherDisplay:10.37,2013-01-10 12:23:00,
2013-01-10 07:28:00,52.7,49.8,30.23,ENE,70,5.8,5.8,90,0.00,OVC,,0.00,WeatherDisplay:10.37,2013-01-10 12:28:00,
2013-01-10 07:33:00,52.7,49.8,30.23,ENE,70,5.8,5.8,90,0.00,OVC,,0.00,WeatherDisplay:10.37,2013-01-10 12:33:00,
2013-01-10 07:38:00,52.9,50.0,30.23,ENE,70,5.8,5.8,90,0.00,OVC,,0.00,WeatherDisplay:10.37,2013-01-10 12:38:00,
2013-01-10 07:43:00,52.9,50.0,30.23,ENE,70,5.8,5.8,90,0.00,OVC,,0.00,WeatherDisplay:10.37,2013-01-10 12:43:00,
2013-01-10 07:48:00,52.9,50.0,30.23,East,80,8.1,8.1,90,0.00,OVC,,0.00,WeatherDisplay:10.37,2013-01-10 12:48:00,
2013-01-10 07:53:00,52.9,50.0,30.23,East,80,8.1,8.1,90,0.00,OVC,,0.00,WeatherDisplay:10.37,2013-01-10 12:53:00,
2013-01-10 07:58:00,52.9,50.0,30.23,East,80,8.1,8.1,90,0.00,OVC,,0.00,WeatherDisplay:10.37,2013-01-10 12:58:00,
2013-01-10 08:03:00,52.9,50.0,30.24,East,80,8.1,8.1,90,0.00,OVC,,0.00,WeatherDisplay:10.37,2013-01-10 13:03:00,
2013-01-10 08:08:00,52.9,50.0,30.24,East,80,8.1,8.1,90,0.00,OVC,,0.00,WeatherDisplay:10.37,2013-01-10 13:08:00,
2013-01-10 08:13:00,52.9,50.0,30.24,East,80,8.1,8.1,90,0.00,OVC,,0.00,WeatherDisplay:10.37,2013-01-10 13:13:00,
2013-01-10 08:18:00,52.9,50.3,30.24,ENE,70,8.1,8.1,91,0.00,OVC,,0.00,WeatherDisplay:10.37,2013-01-10 13:18:00,
2013-01-10 08:23:00,53.2,50.7,30.24,ENE,70,8.1,8.1,91,0.00,OVC,,0.00,WeatherDisplay:10.37,2013-01-10 13:23:00,
2013-01-10 08:28:00,53.2,50.7,30.24,ENE,70,8.1,8.1,91,0.00,OVC,,0.00,WeatherDisplay:10.37,2013-01-10 13:28:00,
2013-01-10 08:33:00,53.4,50.9,30.24,ENE,70,8.1,8.1,91,0.00,OVC,,0.00,WeatherDisplay:10.37,2013-01-10 13:33:00,
2013-01-10 08:38:00,53.4,50.9,30.24,ENE,70,8.1,8.1,91,0.00,OVC,,0.00,WeatherDisplay:10.37,2013-01-10 13:38:00,
2013-01-10 08:43:00,53.8,51.2,30.24,ENE,70,8.1,8.1,91,0.00,OVC,,0.00,WeatherDisplay:10.37,2013-01-10 13:43:00,
2013-01-10 08:48:00,53.8,51.2,30.24,ENE,70,8.1,8.1,91,0.00,OVC,,0.00,WeatherDisplay:10.37,2013-01-10 13:48:00,
2013-01-10 08:53:00,54.0,51.4,30.24,ENE,70,8.1,8.1,91,0.00,OVC,,0.00,WeatherDisplay:10.37,2013-01-10 13:53:00,
2013-01-10 08:58:00,54.1,51.6,30.24,ENE,70,8.1,8.1,91,0.00,OVC,,0.00,WeatherDisplay:10.37,2013-01-10 13:58:00,
2013-01-10 09:03:00,54.1,51.6,30.24,ENE,70,8.1,8.1,91,0.00,OVC,,0.00,WeatherDisplay:10.37,2013-01-10 14:03:00,
2013-01-10 09:08:00,54.3,51.7,30.24,ENE,70,8.1,8.1,91,0.00,OVC,,0.00,WeatherDisplay:10.37,2013-01-10 14:08:00,
2013-01-10 09:13:00,54.5,51.9,30.25,ENE,70,8.1,8.1,91,0.00,OVC,,0.00,WeatherDisplay:10.37,2013-01-10 14:13:00,
2013-01-10 09:18:00,54.7,52.1,30.25,East,80,9.2,9.2,91,0.00,OVC,,0.00,WeatherDisplay:10.37,2013-01-10 14:18:00,
2013-01-10 09:23:00,54.9,52.0,30.25,East,80,9.2,9.2,90,0.00,OVC,,0.00,WeatherDisplay:10.37,2013-01-10 14:23:00,
2013-01-10 09:28:00,55.0,52.2,30.25,East,80,9.2,9.2,90,0.00,OVC,,0.00,WeatherDisplay:10.37,2013-01-10 14:28:00,
2013-01-10 09:33:00,55.2,52.3,30.25,East,80,9.2,9.2,90,0.00,OVC,,0.00,WeatherDisplay:10.37,2013-01-10 14:33:00,
2013-01-10 09:38:00,55.4,52.5,30.25,East,80,9.2,9.2,90,0.00,OVC,,0.00,WeatherDisplay:10.37,2013-01-10 14:38:00,
2013-01-10 09:43:00,55.6,52.7,30.25,East,80,9.2,9.2,90,0.00,OVC,,0.00,WeatherDisplay:10.37,2013-01-10 14:43:00,
2013-01-10 09:48:00,55.8,52.6,30.25,East,80,9.2,9.2,89,0.00,OVC,,0.00,WeatherDisplay:10.37,2013-01-10 14:48:00,
2013-01-10 09:53:00,55.9,52.7,30.25,East,80,9.2,9.2,89,0.00,OVC,,0.00,WeatherDisplay:10.37,2013-01-10 14:53:00,
2013-01-10 09:58:00,56.1,52.6,30.25,East,80,9.2,9.2,88,0.00,OVC,,0.00,WeatherDisplay:10.37,2013-01-10 14:58:00,
2013-01-10 10:03:00,56.5,53.0,30.24,East,80,9.2,9.2,88,0.00,OVC,,0.00,WeatherDisplay:10.37,2013-01-10 15:03:00,
2013-01-10 10:08:00,56.8,53.3,30.24,East,80,9.2,9.2,88,0.00,OVC,,0.00,WeatherDisplay:10.37,2013-01-10 15:08:00,
2013-01-10 10:13:00,56.8,53.0,30.24,East,80,9.2,9.2,87,0.00,OVC,,0.00,WeatherDisplay:10.37,2013-01-10 15:13:00,
2013-01-10 10:18:00,57.0,53.2,30.25,East,80,9.2,9.2,87,0.00,OVC,,0.00,WeatherDisplay:10.37,2013-01-10 15:18:00,
2013-01-10 10:23:00,57.4,53.5,30.25,East,80,9.2,9.2,87,0.00,OVC,,0.00,WeatherDisplay:10.37,2013-01-10 15:23:00,
2013-01-10 10:28:00,57.6,53.4,30.25,East,80,9.2,9.2,86,0.00,OVC,,0.00,WeatherDisplay:10.37,2013-01-10 15:28:00,
2013-01-10 10:33:00,57.9,53.4,30.25,East,80,9.2,9.2,85,0.00,OVC,,0.00,WeatherDisplay:10.37,2013-01-10 15:33:00,
2013-01-10 10:38:00,58.1,53.3,30.25,East,80,9.2,9.2,84,0.00,OVC,,0.00,WeatherDisplay:10.37,2013-01-10 15:38:00,
2013-01-10 10:43:00,58.3,53.5,30.25,East,80,9.2,9.2,84,0.00,OVC,,0.00,WeatherDisplay:10.37,2013-01-10 15:43:00,
2013-01-10 10:48:00,58.3,53.1,30.25,East,80,9.2,9.2,83,0.00,OVC,,0.00,WeatherDisplay:10.37,2013-01-10 15:48:00,
2013-01-10 10:53:00,58.8,53.7,30.25,East,80,9.2,9.2,83,0.00,OVC,,0.00,WeatherDisplay:10.37,2013-01-10 15:53:00,
2013-01-10 10:58:00,58.8,53.7,30.25,East,80,9.2,9.2,83,0.00,OVC,,0.00,WeatherDisplay:10.37,2013-01-10 15:58:00,
2013-01-10 11:03:00,58.8,53.7,30.25,East,80,9.2,9.2,83,0.00,OVC,,0.00,WeatherDisplay:10.37,2013-01-10 16:03:00,
2013-01-10 11:08:00,58.8,53.7,30.25,East,80,9.2,9.2,83,0.00,OVC,,0.00,WeatherDisplay:10.37,2013-01-10 16:08:00,
2013-01-10 11:13:00,58.8,53.3,30.25,East,80,9.2,9.2,82,0.00,OVC,,0.00,WeatherDisplay:10.37,2013-01-10 16:13:00,
2013-01-10 11:18:00,58.8,53.3,30.25,East,90,19.6,19.6,82,0.00,OVC,,0.00,WeatherDisplay:10.37,2013-01-10 16:18:00,
2013-01-10 11:23:00,58.8,53.3,30.25,East,90,19.6,19.6,82,0.00,OVC,,0.00,WeatherDisplay:10.37,2013-01-10 16:23:00,
2013-01-10 11:28:00,58.8,53.3,30.24,East,90,19.6,19.6,82,0.00,OVC,,0.00,WeatherDisplay:10.37,2013-01-10 16:28:00,
2013-01-10 11:33:00,58.8,53.0,30.24,East,90,19.6,19.6,81,0.00,OVC,,0.00,WeatherDisplay:10.37,2013-01-10 16:33:00,
2013-01-10 11:38:00,58.8,53.3,30.24,East,90,19.6,19.6,82,0.00,OVC,,0.00,WeatherDisplay:10.37,2013-01-10 16:38:00,
2013-01-10 11:43:00,58.8,53.3,30.24,East,90,19.6,19.6,82,0.00,OVC,,0.00,WeatherDisplay:10.37,2013-01-10 16:43:00,
2013-01-10 11:48:00,58.8,53.3,30.24,East,90,19.6,19.6,82,0.00,OVC,,0.00,WeatherDisplay:10.37,2013-01-10 16:48:00,
2013-01-10 11:53:00,58.8,53.3,30.24,East,90,19.6,19.6,82,0.00,OVC,,0.00,WeatherDisplay:10.37,2013-01-10 16:53:00,
2013-01-10 11:58:00,58.8,53.3,30.24,East,90,19.6,19.6,82,0.00,OVC,,0.00,WeatherDisplay:10.37,2013-01-10 16:58:00,
2013-01-10 12:03:00,58.8,53.3,30.24,East,90,19.6,19.6,82,0.00,OVC,,0.00,WeatherDisplay:10.37,2013-01-10 17:03:00,
2013-01-10 12:08:00,58.8,53.3,30.23,East,90,19.6,19.6,82,0.00,OVC,,0.00,WeatherDisplay:10.37,2013-01-10 17:08:00,
2013-01-10 12:13:00,58.8,53.3,30.23,East,90,19.6,19.6,82,0.00,OVC,,0.00,WeatherDisplay:10.37,2013-01-10 17:13:00,
2013-01-10 12:18:00,58.8,53.3,30.23,East,90,9.2,9.2,82,0.00,OVC,,0.00,WeatherDisplay:10.37,2013-01-10 17:18:00,
2013-01-10 12:23:00,58.8,53.7,30.23,East,90,9.2,9.2,83,0.00,OVC,,0.00,WeatherDisplay:10.37,2013-01-10 17:23:00,
2013-01-10 12:28:00,58.8,54.0,30.22,East,90,9.2,9.2,84,0.02,RA,OVC,0.02,WeatherDisplay:10.37,2013-01-10 17:28:00,
2013-01-10 12:33:00,58.8,54.3,30.22,East,90,9.2,9.2,85,0.02,RA,OVC,0.02,WeatherDisplay:10.37,2013-01-10 17:33:00,
2013-01-10 12:38:00,58.8,54.6,30.21,East,90,9.2,9.2,86,0.02,OVC,,0.02,WeatherDisplay:10.37,2013-01-10 17:38:00,
2013-01-10 12:43:00,58.8,55.0,30.21,East,90,9.2,9.2,87,0.02,OVC,,0.02,WeatherDisplay:10.37,2013-01-10 17:43:00,
2013-01-10 12:48:00,58.8,55.0,30.20,East,90,9.2,9.2,87,0.02,OVC,,0.02,WeatherDisplay:10.37,2013-01-10 17:48:00,
2013-01-10 12:53:00,59.0,54.8,30.20,East,90,9.2,9.2,86,0.02,OVC,,0.02,WeatherDisplay:10.37,2013-01-10 17:53:00,
2013-01-10 12:58:00,59.4,55.2,30.19,East,90,9.2,9.2,86,0.02,OVC,,0.02,WeatherDisplay:10.37,2013-01-10 17:58:00,
2013-01-10 13:03:00,59.5,55.0,30.19,East,90,9.2,9.2,85,0.02,OVC,,0.02,WeatherDisplay:10.37,2013-01-10 18:03:00,
2013-01-10 13:08:00,59.7,54.9,30.19,East,90,9.2,9.2,84,0.02,OVC,,0.02,WeatherDisplay:10.37,2013-01-10 18:08:00,
2013-01-10 13:13:00,59.9,55.1,30.19,East,90,9.2,9.2,84,0.02,OVC,,0.02,WeatherDisplay:10.37,2013-01-10 18:13:00,
2013-01-10 13:18:00,60.1,55.2,30.19,East,90,11.5,11.5,84,0.02,OVC,,0.02,WeatherDisplay:10.37,2013-01-10 18:18:00,
2013-01-10 13:23:00,60.4,55.6,30.19,East,90,11.5,11.5,84,0.02,OVC,,0.02,WeatherDisplay:10.37,2013-01-10 18:23:00,
2013-01-10 13:28:00,60.6,55.4,30.19,East,90,11.5,11.5,83,0.00,OVC,,0.02,WeatherDisplay:10.37,2013-01-10 18:28:00,
2013-01-10 13:33:00,60.6,55.4,30.19,East,90,11.5,11.5,83,0.00,OVC,,0.02,WeatherDisplay:10.37,2013-01-10 18:33:00,
2013-01-10 13:38:00,61.0,55.8,30.18,East,90,11.5,11.5,83,0.00,OVC,,0.02,WeatherDisplay:10.37,2013-01-10 18:38:00,
2013-01-10 13:43:00,61.2,56.0,30.18,East,90,11.5,11.5,83,0.00,OVC,,0.02,WeatherDisplay:10.37,2013-01-10 18:43:00,
2013-01-10 13:48:00,61.3,55.8,30.17,East,90,11.5,11.5,82,0.00,OVC,,0.02,WeatherDisplay:10.37,2013-01-10 18:48:00,
2013-01-10 13:53:00,61.7,56.1,30.17,East,90,11.5,11.5,82,0.00,OVC,,0.02,WeatherDisplay:10.37,2013-01-10 18:53:00,
2013-01-10 13:58:00,61.9,56.3,30.17,East,90,11.5,11.5,82,0.00,OVC,,0.02,WeatherDisplay:10.37,2013-01-10 18:58:00,
2013-01-10 14:03:00,62.2,56.7,30.17,East,90,11.5,11.5,82,0.00,OVC,,0.02,WeatherDisplay:10.37,2013-01-10 19:03:00,
2013-01-10 14:08:00,62.4,56.5,30.17,East,90,11.5,11.5,81,0.00,OVC,,0.02,WeatherDisplay:10.37,2013-01-10 19:08:00,
2013-01-10 14:13:00,62.6,56.7,30.17,East,90,11.5,11.5,81,0.00,OVC,,0.02,WeatherDisplay:10.37,2013-01-10 19:13:00,
2013-01-10 14:18:00,62.8,56.9,30.17,East,90,23.0,23.0,81,0.00,OVC,,0.02,WeatherDisplay:10.37,2013-01-10 19:18:00,
2013-01-10 14:23:00,63.1,57.2,30.17,East,90,23.0,23.0,81,0.00,OVC,,0.02,WeatherDisplay:10.37,2013-01-10 19:23:00,
2013-01-10 14:28:00,63.1,56.9,30.17,East,90,23.0,23.0,80,0.00,OVC,,0.02,WeatherDisplay:10.37,2013-01-10 19:28:00,
2013-01-10 14:33:00,63.3,56.7,30.17,East,90,23.0,23.0,79,0.00,OVC,,0.02,WeatherDisplay:10.37,2013-01-10 19:33:00,
2013-01-10 14:38:00,63.3,56.3,30.17,East,90,23.0,23.0,78,0.00,OVC,,0.02,WeatherDisplay:10.37,2013-01-10 19:38:00,
2013-01-10 14:43:00,63.3,56.3,30.17,East,90,23.0,23.0,78,0.00,OVC,,0.02,WeatherDisplay:10.37,2013-01-10 19:43:00,
2013-01-10 14:48:00,63.5,56.5,30.17,East,90,23.0,23.0,78,0.00,OVC,,0.02,WeatherDisplay:10.37,2013-01-10 19:48:00,
2013-01-10 14:53:00,63.5,56.5,30.16,East,90,23.0,23.0,78,0.00,OVC,,0.02,WeatherDisplay:10.37,2013-01-10 19:53:00,
2013-01-10 14:58:00,63.5,56.2,30.16,East,90,23.0,23.0,77,0.00,OVC,,0.02,WeatherDisplay:10.37,2013-01-10 19:58:00,
2013-01-10 15:03:00,63.7,56.3,30.17,East,90,23.0,23.0,77,0.00,OVC,,0.02,WeatherDisplay:10.37,2013-01-10 20:03:00,
2013-01-10 15:08:00,63.7,56.0,30.16,East,90,23.0,23.0,76,0.00,OVC,,0.02,WeatherDisplay:10.37,2013-01-10 20:08:00,
2013-01-10 15:13:00,63.7,56.0,30.17,East,90,23.0,23.0,76,0.00,OVC,,0.02,WeatherDisplay:10.37,2013-01-10 20:13:00,
2013-01-10 15:18:00,63.7,56.0,30.17,ESE,120,20.7,20.7,76,0.00,BKN,OVC,0.02,WeatherDisplay:10.37,2013-01-10 20:18:00,
2013-01-10 15:23:00,63.7,55.6,30.17,ESE,120,20.7,20.7,75,0.00,BKN,OVC,0.02,WeatherDisplay:10.37,2013-01-10 20:23:00,
2013-01-10 15:28:00,63.5,55.4,30.17,ESE,120,20.7,20.7,75,0.00,BKN,OVC,0.02,WeatherDisplay:10.37,2013-01-10 20:28:00,
2013-01-10 15:33:00,63.7,55.6,30.17,ESE,120,20.7,20.7,75,0.00,BKN,OVC,0.02,WeatherDisplay:10.37,2013-01-10 20:33:00,
2013-01-10 15:38:00,63.7,55.6,30.16,ESE,120,20.7,20.7,75,0.00,BKN,OVC,0.02,WeatherDisplay:10.37,2013-01-10 20:38:00,
2013-01-10 15:43:00,63.7,55.2,30.16,ESE,120,20.7,20.7,74,0.00,BKN,OVC,0.02,WeatherDisplay:10.37,2013-01-10 20:43:00,
2013-01-10 15:48:00,63.7,55.2,30.16,ESE,120,20.7,20.7,74,0.00,BKN,OVC,0.02,WeatherDisplay:10.37,2013-01-10 20:48:00,
2013-01-10 15:53:00,63.7,55.2,30.17,ESE,120,20.7,20.7,74,0.00,BKN,OVC,0.02,WeatherDisplay:10.37,2013-01-10 20:53:00,
2013-01-10 15:58:00,63.7,55.2,30.17,ESE,120,20.7,20.7,74,0.00,BKN,OVC,0.02,WeatherDisplay:10.37,2013-01-10 20:58:00,
2013-01-10 16:03:00,63.7,54.9,30.17,ESE,120,20.7,20.7,73,0.00,BKN,OVC,0.02,WeatherDisplay:10.37,2013-01-10 21:03:00,
2013-01-10 16:08:00,63.9,55.0,30.17,ESE,120,20.7,20.7,73,0.00,BKN,OVC,0.02,WeatherDisplay:10.37,2013-01-10 21:08:00,
2013-01-10 16:13:00,63.9,55.0,30.17,ESE,120,20.7,20.7,73,0.00,BKN,OVC,0.02,WeatherDisplay:10.37,2013-01-10 21:13:00,
2013-01-10 16:18:00,63.7,54.9,30.17,East,80,8.1,8.1,73,0.00,OVC,,0.02,WeatherDisplay:10.37,2013-01-10 21:18:00,
2013-01-10 16:23:00,63.7,54.9,30.17,East,80,8.1,8.1,73,0.00,OVC,,0.02,WeatherDisplay:10.37,2013-01-10 21:23:00,
2013-01-10 16:28:00,63.7,54.9,30.18,East,80,8.1,8.1,73,0.00,OVC,,0.02,WeatherDisplay:10.37,2013-01-10 21:28:00,
2013-01-10 16:33:00,63.5,54.7,30.17,East,80,8.1,8.1,73,0.00,OVC,,0.02,WeatherDisplay:10.37,2013-01-10 21:33:00,
2013-01-10 16:38:00,63.3,54.5,30.17,East,80,8.1,8.1,73,0.00,OVC,,0.02,WeatherDisplay:10.37,2013-01-10 21:38:00,
2013-01-10 16:43:00,63.3,54.5,30.17,East,80,8.1,8.1,73,0.00,OVC,,0.02,WeatherDisplay:10.37,2013-01-10 21:43:00,
2013-01-10 16:48:00,63.3,54.9,30.17,East,80,8.1,8.1,74,0.00,OVC,,0.02,WeatherDisplay:10.37,2013-01-10 21:48:00,
2013-01-10 16:53:00,63.1,54.7,30.17,East,80,8.1,8.1,74,0.00,OVC,,0.02,WeatherDisplay:10.37,2013-01-10 21:53:00,
2013-01-10 16:58:00,63.0,54.5,30.17,East,80,8.1,8.1,74,0.00,OVC,,0.02,WeatherDisplay:10.37,2013-01-10 21:58:00,
2013-01-10 17:03:00,62.8,54.4,30.16,East,80,8.1,8.1,74,0.00,OVC,,0.02,WeatherDisplay:10.37,2013-01-10 22:03:00,
2013-01-10 17:08:00,62.6,54.6,30.17,East,80,8.1,8.1,75,0.00,OVC,,0.02,WeatherDisplay:10.37,2013-01-10 22:08:00,
2013-01-10 17:13:00,62.4,54.4,30.16,East,80,8.1,8.1,75,0.00,OVC,,0.02,WeatherDisplay:10.37,2013-01-10 22:13:00,
2013-01-10 17:18:00,62.4,54.4,30.16,East,80,6.9,6.9,75,0.00,OVC,,0.02,WeatherDisplay:10.37,2013-01-10 22:18:00,
2013-01-10 17:23:00,62.2,54.2,30.16,East,80,6.9,6.9,75,0.00,OVC,,0.02,WeatherDisplay:10.37,2013-01-10 22:23:00,
2013-01-10 17:28:00,61.9,54.2,30.15,East,80,6.9,6.9,76,0.00,OVC,,0.02,WeatherDisplay:10.37,2013-01-10 22:28:00,
2013-01-10 17:33:00,61.7,54.1,30.16,East,80,6.9,6.9,76,0.00,OVC,,0.02,WeatherDisplay:10.37,2013-01-10 22:33:00,
2013-01-10 17:38:00,61.5,54.2,30.16,East,80,6.9,6.9,77,0.00,OVC,,0.02,WeatherDisplay:10.37,2013-01-10 22:38:00,
2013-01-10 17:43:00,61.3,54.1,30.16,East,80,6.9,6.9,77,0.00,OVC,,0.02,WeatherDisplay:10.37,2013-01-10 22:43:00,
2013-01-10 17:48:00,61.2,53.9,30.16,East,80,6.9,6.9,77,0.00,OVC,,0.02,WeatherDisplay:10.37,2013-01-10 22:48:00,
2013-01-10 17:53:00,61.0,53.7,30.15,East,80,6.9,6.9,77,0.00,OVC,,0.02,WeatherDisplay:10.37,2013-01-10 22:53:00,
2013-01-10 17:58:00,60.6,53.4,30.15,East,80,6.9,6.9,77,0.00,OVC,,0.02,WeatherDisplay:10.37,2013-01-10 22:58:00,
2013-01-10 18:03:00,60.4,53.5,30.16,East,80,6.9,6.9,78,0.00,OVC,,0.02,WeatherDisplay:10.37,2013-01-10 23:03:00,
2013-01-10 18:08:00,60.1,53.2,30.15,East,80,6.9,6.9,78,0.00,OVC,,0.02,WeatherDisplay:10.37,2013-01-10 23:08:00,
2013-01-10 18:13:00,59.7,52.8,30.15,East,80,6.9,6.9,78,0.00,OVC,,0.02,WeatherDisplay:10.37,2013-01-10 23:13:00,
2013-01-10 18:19:00,59.4,52.8,30.15,East,90,6.9,6.9,79,0.00,SCT,OVC,0.02,WeatherDisplay:10.37,2013-01-10 23:19:00,
2013-01-10 18:24:00,59.2,52.7,30.15,East,90,6.9,6.9,79,0.00,SCT,OVC,0.02,WeatherDisplay:10.37,2013-01-10 23:24:00,
2013-01-10 18:29:00,58.8,52.7,30.15,East,90,6.9,6.9,80,0.00,SCT,OVC,0.02,WeatherDisplay:10.37,2013-01-10 23:29:00,
2013-01-10 18:34:00,58.8,52.7,30.15,East,90,6.9,6.9,80,0.00,SCT,OVC,0.02,WeatherDisplay:10.37,2013-01-10 23:34:00,
2013-01-10 18:39:00,58.8,52.7,30.14,East,90,6.9,6.9,80,0.00,SCT,OVC,0.02,WeatherDisplay:10.37,2013-01-10 23:39:00,
2013-01-10 18:44:00,58.8,53.0,30.14,East,90,6.9,6.9,81,0.00,SCT,OVC,0.02,WeatherDisplay:10.37,2013-01-10 23:44:00,
2013-01-10 18:49:00,58.8,53.0,30.14,East,90,6.9,6.9,81,0.00,SCT,OVC,0.02,WeatherDisplay:10.37,2013-01-10 23:49:00,
2013-01-10 18:54:00,58.8,53.0,30.14,East,90,6.9,6.9,81,0.00,SCT,OVC,0.02,WeatherDisplay:10.37,2013-01-10 23:54:00,
2013-01-10 18:59:00,58.8,53.3,30.14,East,90,6.9,6.9,82,0.00,SCT,OVC,0.02,WeatherDisplay:10.37,2013-01-10 23:59:00,
2013-01-10 19:04:00,58.8,53.3,30.14,East,90,6.9,6.9,82,0.00,SCT,OVC,0.02,WeatherDisplay:10.37,2013-01-11 00:04:00,
2013-01-10 19:09:00,58.8,53.3,30.14,East,90,6.9,6.9,82,0.00,SCT,OVC,0.02,WeatherDisplay:10.37,2013-01-11 00:09:00,
2013-01-10 19:14:00,58.8,53.3,30.14,East,90,6.9,6.9,82,0.00,SCT,OVC,0.02,WeatherDisplay:10.37,2013-01-11 00:14:00,
2013-01-10 19:19:00,58.8,53.3,30.14,East,80,10.4,10.4,82,0.00,OVC,,0.02,WeatherDisplay:10.37,2013-01-11 00:19:00,
2013-01-10 19:24:00,59.2,53.7,30.14,East,80,10.4,10.4,82,0.00,OVC,,0.02,WeatherDisplay:10.37,2013-01-11 00:24:00,
2013-01-10 19:29:00,59.2,53.7,30.13,East,80,10.4,10.4,82,0.00,OVC,,0.02,WeatherDisplay:10.37,2013-01-11 00:29:00,
2013-01-10 19:34:00,59.4,53.5,30.14,East,80,10.4,10.4,81,0.00,OVC,,0.02,WeatherDisplay:10.37,2013-01-11 00:34:00,
2013-01-10 19:39:00,59.5,53.7,30.14,East,80,10.4,10.4,81,0.00,OVC,,0.02,WeatherDisplay:10.37,2013-01-11 00:39:00,
2013-01-10 19:44:00,59.5,53.7,30.14,East,80,10.4,10.4,81,0.00,OVC,,0.02,WeatherDisplay:10.37,2013-01-11 00:44:00,
2013-01-10 19:49:00,59.7,53.9,30.14,East,80,10.4,10.4,81,0.00,OVC,,0.02,WeatherDisplay:10.37,2013-01-11 00:49:00,
2013-01-10 19:54:00,59.7,53.5,30.14,East,80,10.4,10.4,80,0.00,OVC,,0.02,WeatherDisplay:10.37,2013-01-11 00:54:00,
2013-01-10 20:00:00,59.7,53.6,30.14,East,80,10.0,0.0,80,0.00,OVC,OVC,0.02,WeatherDisplay:10.37,2013-01-11 01:00:00,
2013-01-10 20:05:00,59.9,53.7,30.14,East,80,10.4,10.4,80,0.00,OVC,,0.02,WeatherDisplay:10.37,2013-01-11 01:05:00,
2013-01-10 20:10:00,59.9,53.7,30.14,East,80,10.0,0.0,80,0.00,OVC,OVC,0.02,WeatherDisplay:10.37,2013-01-11 01:10:00,
2013-01-10 20:15:00,59.9,53.7,30.14,East,80,10.4,10.4,80,0.00,OVC,,0.02,WeatherDisplay:10.37,2013-01-11 01:15:00,
2013-01-10 20:20:00,59.9,53.7,30.14,East,95,6.0,0.0,80,0.00,-RA,OVC,0.02,WeatherDisplay:10.37,2013-01-11 01:20:00,
2013-01-10 20:25:00,60.1,53.5,30.14,ESE,120,5.8,5.8,79,0.00,-RA,OVC,0.02,WeatherDisplay:10.37,2013-01-11 01:25:00,
2013-01-10 20:30:00,60.5,53.9,30.14,ESE,120,6.0,0.0,79,0.00,-RA,OVC,0.02,WeatherDisplay:10.37,2013-01-11 01:30:00,
2013-01-10 20:35:00,61.0,54.1,30.14,ESE,120,5.8,5.8,78,0.00,-RA,OVC,0.02,WeatherDisplay:10.37,2013-01-11 01:35:00,
2013-01-10 20:40:00,61.0,54.1,30.14,ESE,120,6.0,0.0,78,0.00,-RA,OVC,0.02,WeatherDisplay:10.37,2013-01-11 01:40:00,
2013-01-10 20:45:00,61.2,54.2,30.14,ESE,120,5.8,5.8,78,0.00,-RA,OVC,0.02,WeatherDisplay:10.37,2013-01-11 01:45:00,
2013-01-10 20:50:00,61.2,54.6,30.14,ESE,120,6.0,0.0,79,0.00,-RA,OVC,0.02,WeatherDisplay:10.37,2013-01-11 01:50:00,
2013-01-10 20:55:00,61.0,54.4,30.14,ESE,120,5.8,5.8,79,0.00,-RA,OVC,0.02,WeatherDisplay:10.37,2013-01-11 01:55:00,
2013-01-10 21:00:00,61.0,54.4,30.14,ESE,120,5.8,5.8,79,0.00,-RA,OVC,0.02,WeatherDisplay:10.37,2013-01-11 02:00:00,
2013-01-10 21:05:00,60.8,54.2,30.14,ESE,120,5.8,5.8,79,0.00,-RA,OVC,0.02,WeatherDisplay:10.37,2013-01-11 02:05:00,
2013-01-10 21:10:00,60.6,54.4,30.15,ESE,120,5.8,5.8,80,0.00,-RA,OVC,0.02,WeatherDisplay:10.37,2013-01-11 02:10:00,
2013-01-10 21:15:00,60.4,54.6,30.14,ESE,120,5.8,5.8,81,0.00,-RA,OVC,0.02,WeatherDisplay:10.37,2013-01-11 02:15:00,
2013-01-10 21:20:00,60.1,54.9,30.14,SE,130,8.1,8.1,83,0.00,-RA,OVC,0.02,WeatherDisplay:10.37,2013-01-11 02:20:00,
2013-01-10 21:25:00,59.7,54.9,30.14,SE,130,8.1,8.1,84,0.00,-RA,OVC,0.02,WeatherDisplay:10.37,2013-01-11 02:25:00,
2013-01-10 21:30:00,59.4,54.8,30.14,SE,130,8.1,8.1,85,0.00,-RA,OVC,0.02,WeatherDisplay:10.37,2013-01-11 02:30:00,
2013-01-10 21:35:00,58.8,54.6,30.14,SE,130,8.1,8.1,86,0.00,-RA,OVC,0.02,WeatherDisplay:10.37,2013-01-11 02:35:00,
2013-01-10 21:40:00,58.8,55.0,30.13,SE,130,8.1,8.1,87,0.00,-RA,OVC,0.02,WeatherDisplay:10.37,2013-01-11 02:40:00,
2013-01-10 21:45:00,58.8,55.0,30.13,SE,130,8.1,8.1,87,0.00,OVC,,0.02,WeatherDisplay:10.37,2013-01-11 02:45:00,
2013-01-10 21:50:00,58.8,55.3,30.13,ESE,110,6.9,6.9,88,0.00,OVC,,0.02,WeatherDisplay:10.37,2013-01-11 02:50:00,
2013-01-10 21:55:00,58.8,55.3,30.13,ESE,110,6.9,6.9,88,0.00,OVC,,0.02,WeatherDisplay:10.37,2013-01-11 02:55:00,
2013-01-10 22:00:00,58.6,55.1,30.13,ESE,110,6.9,6.9,88,0.00,OVC,,0.02,WeatherDisplay:10.37,2013-01-11 03:00:00,
2013-01-10 22:05:00,58.6,55.4,30.13,ESE,110,6.9,6.9,89,0.00,OVC,,0.02,WeatherDisplay:10.37,2013-01-11 03:05:00,
2013-01-10 22:10:00,58.5,55.2,30.13,ESE,110,6.9,6.9,89,0.00,OVC,,0.02,WeatherDisplay:10.37,2013-01-11 03:10:00,
2013-01-10 22:15:00,58.3,55.1,30.13,ESE,110,6.9,6.9,89,0.00,OVC,,0.02,WeatherDisplay:10.37,2013-01-11 03:15:00,
2013-01-10 22:20:00,58.3,55.1,30.12,East,100,5.8,5.8,89,0.00,OVC,,0.02,WeatherDisplay:10.37,2013-01-11 03:20:00,
2013-01-10 22:25:00,58.3,55.1,30.12,East,100,5.8,5.8,89,0.00,OVC,,0.02,WeatherDisplay:10.37,2013-01-11 03:25:00,
2013-01-10 22:30:00,58.3,55.1,30.11,East,100,5.8,5.8,89,0.00,OVC,,0.02,WeatherDisplay:10.37,2013-01-11 03:30:00,
2013-01-10 22:35:00,58.3,55.1,30.11,East,100,5.8,5.8,89,0.00,OVC,,0.02,WeatherDisplay:10.37,2013-01-11 03:35:00,
2013-01-10 22:40:00,58.1,55.2,30.11,East,100,5.8,5.8,90,0.00,OVC,,0.02,WeatherDisplay:10.37,2013-01-11 03:40:00,
2013-01-10 22:45:00,58.1,55.2,30.11,East,100,5.8,5.8,90,0.00,OVC,,0.02,WeatherDisplay:10.37,2013-01-11 03:45:00,
2013-01-10 22:50:00,58.1,55.2,30.11,ESE,110,10.4,10.4,90,0.00,OVC,,0.02,WeatherDisplay:10.37,2013-01-11 03:50:00,
2013-01-10 22:55:00,58.1,55.2,30.11,ESE,110,10.4,10.4,90,0.00,OVC,,0.02,WeatherDisplay:10.37,2013-01-11 03:55:00,
2013-01-10 23:00:00,58.1,55.2,30.10,ESE,110,10.4,10.4,90,0.00,OVC,,0.02,WeatherDisplay:10.37,2013-01-11 04:00:00,
2013-01-10 23:05:00,58.1,55.2,30.11,ESE,110,10.4,10.4,90,0.00,OVC,,0.02,WeatherDisplay:10.37,2013-01-11 04:05:00,
2013-01-10 23:10:00,57.9,55.0,30.10,ESE,110,10.4,10.4,90,0.00,OVC,,0.02,WeatherDisplay:10.37,2013-01-11 04:10:00,
2013-01-10 23:15:00,57.9,55.0,30.10,ESE,110,10.4,10.4,90,0.00,OVC,,0.02,WeatherDisplay:10.37,2013-01-11 04:15:00,
2013-01-10 23:20:00,57.9,55.3,30.10,East,100,8.1,8.1,91,0.00,OVC,,0.02,WeatherDisplay:10.37,2013-01-11 04:20:00,
2013-01-10 23:25:00,57.9,55.3,30.10,East,100,8.1,8.1,91,0.00,OVC,,0.02,WeatherDisplay:10.37,2013-01-11 04:25:00,
2013-01-10 23:30:00,57.7,55.1,30.10,East,100,8.1,8.1,91,0.00,OVC,,0.02,WeatherDisplay:10.37,2013-01-11 04:30:00,
2013-01-10 23:35:00,57.7,55.1,30.10,East,100,8.1,8.1,91,0.00,OVC,,0.02,WeatherDisplay:10.37,2013-01-11 04:35:00,
2013-01-10 23:40:00,57.7,55.1,30.10,East,100,8.1,8.1,91,0.00,OVC,,0.02,WeatherDisplay:10.37,2013-01-11 04:40:00,
2013-01-10 23:45:00,57.7,55.1,30.10,East,100,8.1,8.1,91,0.00,OVC,,0.02,WeatherDisplay:10.37,2013-01-11 04:45:00,
2013-01-10 23:50:00,57.7,55.4,30.08,ESE,120,6.9,6.9,92,0.00,BKN,OVC,0.02,WeatherDisplay:10.37,2013-01-11 04:50:00,
2013-01-10 23:55:00,57.7,55.4,30.08,ESE,120,6.9,6.9,92,0.00,BKN,OVC,0.02,WeatherDisplay:10.37,2013-01-11 04:55:00,